sensor_id;sensor_type;location;lat;lon;timestamp;P1;P2;P0
76101;PMS7003;64830;46.910;6.354;2023-02-14T00:02:17;12.75;9.25;7.50
76101;PMS7003;64830;46.910;6.354;2023-02-14T00:04:42;15.75;12.00;8.25
76101;PMS7003;64830;46.910;6.354;2023-02-14T00:07:10;11.75;10.75;8.25
76101;PMS7003;64830;46.910;6.354;2023-02-14T00:09:35;11.00;9.25;7.00
76101;PMS7003;64830;46.910;6.354;2023-02-14T00:12:01;10.75;10.25;8.00
76101;PMS7003;64830;46.910;6.354;2023-02-14T00:14:27;12.50;11.50;9.75
76101;PMS7003;64830;46.910;6.354;2023-02-14T00:17:11;15.00;11.00;9.50
76101;PMS7003;64830;46.910;6.354;2023-02-14T00:19:36;8.00;7.00;6.00
76101;PMS7003;64830;46.910;6.354;2023-02-14T00:22:02;13.75;10.00;7.00
76101;PMS7003;64830;46.910;6.354;2023-02-14T00:24:28;12.75;9.50;7.25
76101;PMS7003;64830;46.910;6.354;2023-02-14T00:26:54;12.00;12.00;8.00
76101;PMS7003;64830;46.910;6.354;2023-02-14T00:29:21;10.00;6.50;5.50
76101;PMS7003;64830;46.910;6.354;2023-02-14T00:31:51;13.00;8.00;7.00
76101;PMS7003;64830;46.910;6.354;2023-02-14T00:34:17;10.00;9.75;8.00
76101;PMS7003;64830;46.910;6.354;2023-02-14T00:36:43;8.00;8.00;7.00
76101;PMS7003;64830;46.910;6.354;2023-02-14T00:39:10;11.25;11.25;6.00
76101;PMS7003;64830;46.910;6.354;2023-02-14T00:41:36;12.00;10.50;7.25
76101;PMS7003;64830;46.910;6.354;2023-02-14T00:44:02;9.75;6.50;5.00
76101;PMS7003;64830;46.910;6.354;2023-02-14T00:46:28;12.75;11.00;8.00
76101;PMS7003;64830;46.910;6.354;2023-02-14T00:48:54;13.50;10.00;7.25
76101;PMS7003;64830;46.910;6.354;2023-02-14T00:51:20;12.50;10.00;8.00
76101;PMS7003;64830;46.910;6.354;2023-02-14T00:53:46;9.25;9.00;7.50
76101;PMS7003;64830;46.910;6.354;2023-02-14T00:56:13;10.00;10.00;7.00
76101;PMS7003;64830;46.910;6.354;2023-02-14T00:58:39;10.75;8.00;7.00
76101;PMS7003;64830;46.910;6.354;2023-02-14T01:01:05;8.25;7.00;5.00
76101;PMS7003;64830;46.910;6.354;2023-02-14T01:03:31;10.25;8.00;7.00
76101;PMS7003;64830;46.910;6.354;2023-02-14T01:05:57;13.00;7.50;6.75
76101;PMS7003;64830;46.910;6.354;2023-02-14T01:08:23;4.75;4.75;4.75
76101;PMS7003;64830;46.910;6.354;2023-02-14T01:10:49;10.25;10.00;7.50
76101;PMS7003;64830;46.910;6.354;2023-02-14T01:13:14;10.00;10.00;8.00
76101;PMS7003;64830;46.910;6.354;2023-02-14T01:15:42;10.75;8.50;4.00
76101;PMS7003;64830;46.910;6.354;2023-02-14T01:18:09;10.50;7.00;5.00
76101;PMS7003;64830;46.910;6.354;2023-02-14T01:20:35;11.75;11.00;8.00
76101;PMS7003;64830;46.910;6.354;2023-02-14T01:23:00;15.50;10.75;7.00
76101;PMS7003;64830;46.910;6.354;2023-02-14T01:25:26;9.00;7.50;5.00
76101;PMS7003;64830;46.910;6.354;2023-02-14T01:27:53;11.25;7.75;5.00
76101;PMS7003;64830;46.910;6.354;2023-02-14T01:30:18;10.50;10.25;8.00
76101;PMS7003;64830;46.910;6.354;2023-02-14T01:32:44;10.50;10.00;8.00
76101;PMS7003;64830;46.910;6.354;2023-02-14T01:35:09;10.75;8.50;7.25
76101;PMS7003;64830;46.910;6.354;2023-02-14T01:37:35;10.50;8.00;7.00
76101;PMS7003;64830;46.910;6.354;2023-02-14T01:40:02;8.25;7.25;6.00
76101;PMS7003;64830;46.910;6.354;2023-02-14T01:42:28;9.75;7.50;5.00
76101;PMS7003;64830;46.910;6.354;2023-02-14T01:45:02;7.00;7.00;5.00
76101;PMS7003;64830;46.910;6.354;2023-02-14T01:47:32;6.50;3.00;1.75
76101;PMS7003;64830;46.910;6.354;2023-02-14T01:50:04;13.00;10.25;7.50
76101;PMS7003;64830;46.910;6.354;2023-02-14T01:52:37;11.00;8.50;6.00
76101;PMS7003;64830;46.910;6.354;2023-02-14T01:55:10;11.00;10.00;7.75
76101;PMS7003;64830;46.910;6.354;2023-02-14T01:57:41;5.50;5.00;4.00
76101;PMS7003;64830;46.910;6.354;2023-02-14T02:00:10;10.50;10.50;7.75
76101;PMS7003;64830;46.910;6.354;2023-02-14T02:02:57;10.25;10.25;7.50
76101;PMS7003;64830;46.910;6.354;2023-02-14T02:05:25;12.25;7.75;7.25
76101;PMS7003;64830;46.910;6.354;2023-02-14T02:07:51;11.75;7.00;6.00
76101;PMS7003;64830;46.910;6.354;2023-02-14T02:10:19;8.50;6.50;4.75
76101;PMS7003;64830;46.910;6.354;2023-02-14T02:12:44;9.75;8.75;5.50
76101;PMS7003;64830;46.910;6.354;2023-02-14T02:15:11;6.50;6.50;5.00
76101;PMS7003;64830;46.910;6.354;2023-02-14T02:28:57;10.00;7.00;5.00
76101;PMS7003;64830;46.910;6.354;2023-02-14T02:43:01;11.25;8.25;6.50
76101;PMS7003;64830;46.910;6.354;2023-02-14T02:45:46;7.50;6.50;5.00
76101;PMS7003;64830;46.910;6.354;2023-02-14T02:48:44;12.00;8.00;7.00
76101;PMS7003;64830;46.910;6.354;2023-02-14T02:51:19;9.00;6.00;4.25
76101;PMS7003;64830;46.910;6.354;2023-02-14T02:54:15;7.00;6.00;4.75
76101;PMS7003;64830;46.910;6.354;2023-02-14T02:56:49;9.00;7.00;5.00
76101;PMS7003;64830;46.910;6.354;2023-02-14T02:59:20;6.50;5.00;4.00
76101;PMS7003;64830;46.910;6.354;2023-02-14T03:04:37;14.00;11.00;8.00
76101;PMS7003;64830;46.910;6.354;2023-02-14T03:09:59;7.00;6.00;4.00
76101;PMS7003;64830;46.910;6.354;2023-02-14T03:15:07;12.25;10.50;7.00
76101;PMS7003;64830;46.910;6.354;2023-02-14T03:17:50;9.50;8.25;7.00
76101;PMS7003;64830;46.910;6.354;2023-02-14T03:20:42;8.50;6.25;5.25
76101;PMS7003;64830;46.910;6.354;2023-02-14T03:36:24;13.50;8.50;7.00
76101;PMS7003;64830;46.910;6.354;2023-02-14T03:39:09;11.00;7.75;6.00
76101;PMS7003;64830;46.910;6.354;2023-02-14T03:42:29;8.00;7.00;5.25
76101;PMS7003;64830;46.910;6.354;2023-02-14T03:44:45;6.00;5.25;5.25
76101;PMS7003;64830;46.910;6.354;2023-02-14T03:47:17;9.50;7.75;4.50
76101;PMS7003;64830;46.910;6.354;2023-02-14T03:49:50;7.00;7.00;5.25
76101;PMS7003;64830;46.910;6.354;2023-02-14T03:52:20;7.25;5.75;4.00
76101;PMS7003;64830;46.910;6.354;2023-02-14T03:54:47;2.25;2.25;2.25
76101;PMS7003;64830;46.910;6.354;2023-02-14T03:59:49;7.25;5.25;3.75
76101;PMS7003;64830;46.910;6.354;2023-02-14T04:02:26;6.50;6.50;4.00
76101;PMS7003;64830;46.910;6.354;2023-02-14T04:04:57;8.50;6.00;5.50
76101;PMS7003;64830;46.910;6.354;2023-02-14T04:07:25;8.00;7.00;5.25
76101;PMS7003;64830;46.910;6.354;2023-02-14T04:09:51;10.00;8.50;6.00
76101;PMS7003;64830;46.910;6.354;2023-02-14T04:12:18;5.00;4.50;4.00
76101;PMS7003;64830;46.910;6.354;2023-02-14T04:14:44;14.25;8.25;4.75
76101;PMS7003;64830;46.910;6.354;2023-02-14T04:17:10;8.50;7.25;5.25
76101;PMS7003;64830;46.910;6.354;2023-02-14T04:19:54;6.75;6.00;4.00
76101;PMS7003;64830;46.910;6.354;2023-02-14T04:22:19;7.00;7.00;5.50
76101;PMS7003;64830;46.910;6.354;2023-02-14T04:24:44;7.50;7.50;5.25
76101;PMS7003;64830;46.910;6.354;2023-02-14T04:27:10;10.75;8.25;7.25
76101;PMS7003;64830;46.910;6.354;2023-02-14T04:32:09;11.25;8.75;8.00
76101;PMS7003;64830;46.910;6.354;2023-02-14T04:34:36;6.75;4.00;3.00
76101;PMS7003;64830;46.910;6.354;2023-02-14T04:37:02;10.00;10.00;6.25
76101;PMS7003;64830;46.910;6.354;2023-02-14T04:39:28;15.00;10.00;7.50
76101;PMS7003;64830;46.910;6.354;2023-02-14T04:41:54;13.00;11.50;8.25
76101;PMS7003;64830;46.910;6.354;2023-02-14T04:44:19;6.25;6.25;4.00
76101;PMS7003;64830;46.910;6.354;2023-02-14T04:46:45;7.50;7.50;7.00
76101;PMS7003;64830;46.910;6.354;2023-02-14T04:49:10;10.50;9.00;7.00
76101;PMS7003;64830;46.910;6.354;2023-02-14T04:51:35;11.25;9.75;8.25
76101;PMS7003;64830;46.910;6.354;2023-02-14T04:54:01;8.00;8.00;6.25
76101;PMS7003;64830;46.910;6.354;2023-02-14T04:56:26;10.00;9.50;8.75
76101;PMS7003;64830;46.910;6.354;2023-02-14T04:58:52;6.00;4.75;3.75
76101;PMS7003;64830;46.910;6.354;2023-02-14T05:01:18;10.50;10.25;7.75
76101;PMS7003;64830;46.910;6.354;2023-02-14T05:03:43;12.50;12.00;8.50
76101;PMS7003;64830;46.910;6.354;2023-02-14T05:06:09;11.00;10.75;7.75
76101;PMS7003;64830;46.910;6.354;2023-02-14T05:08:34;10.75;9.50;7.50
76101;PMS7003;64830;46.910;6.354;2023-02-14T05:10:59;14.00;10.50;8.25
76101;PMS7003;64830;46.910;6.354;2023-02-14T05:13:25;14.50;13.00;11.25
76101;PMS7003;64830;46.910;6.354;2023-02-14T05:15:50;10.75;10.00;8.25
76101;PMS7003;64830;46.910;6.354;2023-02-14T05:18:16;10.00;10.00;7.00
76101;PMS7003;64830;46.910;6.354;2023-02-14T05:20:41;6.50;6.25;3.75
76101;PMS7003;64830;46.910;6.354;2023-02-14T05:23:06;9.75;7.50;6.00
76101;PMS7003;64830;46.910;6.354;2023-02-14T05:25:37;9.50;8.75;6.75
76101;PMS7003;64830;46.910;6.354;2023-02-14T05:28:03;8.50;8.25;5.75
76101;PMS7003;64830;46.910;6.354;2023-02-14T05:30:29;10.00;10.00;8.00
76101;PMS7003;64830;46.910;6.354;2023-02-14T05:32:54;6.25;6.25;4.50
76101;PMS7003;64830;46.910;6.354;2023-02-14T05:35:20;8.25;8.25;7.00
76101;PMS7003;64830;46.910;6.354;2023-02-14T05:37:45;9.25;6.50;4.75
76101;PMS7003;64830;46.910;6.354;2023-02-14T05:40:11;12.50;8.50;4.25
76101;PMS7003;64830;46.910;6.354;2023-02-14T05:42:40;12.00;8.75;6.50
76101;PMS7003;64830;46.910;6.354;2023-02-14T05:45:09;15.75;10.00;6.75
76101;PMS7003;64830;46.910;6.354;2023-02-14T05:47:35;8.25;7.00;4.00
76101;PMS7003;64830;46.910;6.354;2023-02-14T05:50:01;4.75;3.00;3.00
76101;PMS7003;64830;46.910;6.354;2023-02-14T05:52:26;8.25;7.50;6.00
76101;PMS7003;64830;46.910;6.354;2023-02-14T05:54:52;10.75;10.00;7.00
76101;PMS7003;64830;46.910;6.354;2023-02-14T05:57:17;11.25;11.25;8.75
76101;PMS7003;64830;46.910;6.354;2023-02-14T05:59:43;11.00;9.25;6.75
76101;PMS7003;64830;46.910;6.354;2023-02-14T06:02:08;4.00;4.00;3.50
76101;PMS7003;64830;46.910;6.354;2023-02-14T06:04:34;14.00;11.75;8.75
76101;PMS7003;64830;46.910;6.354;2023-02-14T06:06:59;10.00;10.00;7.00
76101;PMS7003;64830;46.910;6.354;2023-02-14T06:09:25;11.25;10.25;9.25
76101;PMS7003;64830;46.910;6.354;2023-02-14T06:11:50;11.50;9.75;8.25
76101;PMS7003;64830;46.910;6.354;2023-02-14T06:14:16;10.00;8.25;6.00
76101;PMS7003;64830;46.910;6.354;2023-02-14T06:16:41;9.50;9.50;6.50
76101;PMS7003;64830;46.910;6.354;2023-02-14T06:19:07;9.00;6.75;6.00
76101;PMS7003;64830;46.910;6.354;2023-02-14T06:21:32;9.00;9.00;7.00
76101;PMS7003;64830;46.910;6.354;2023-02-14T06:23:58;15.25;10.50;9.00
76101;PMS7003;64830;46.910;6.354;2023-02-14T06:26:23;9.50;7.75;6.00
76101;PMS7003;64830;46.910;6.354;2023-02-14T06:28:54;9.50;9.50;7.50
76101;PMS7003;64830;46.910;6.354;2023-02-14T06:31:21;9.75;9.75;8.00
76101;PMS7003;64830;46.910;6.354;2023-02-14T06:33:46;8.75;7.00;5.25
76101;PMS7003;64830;46.910;6.354;2023-02-14T06:36:12;6.50;6.50;6.00
76101;PMS7003;64830;46.910;6.354;2023-02-14T06:38:37;7.00;7.00;6.00
76101;PMS7003;64830;46.910;6.354;2023-02-14T06:41:03;12.75;10.50;7.75
76101;PMS7003;64830;46.910;6.354;2023-02-14T06:43:30;11.75;10.00;8.00
76101;PMS7003;64830;46.910;6.354;2023-02-14T06:45:56;14.75;10.00;7.00
76101;PMS7003;64830;46.910;6.354;2023-02-14T06:48:22;15.00;9.00;7.00
76101;PMS7003;64830;46.910;6.354;2023-02-14T06:50:47;14.00;12.50;9.50
76101;PMS7003;64830;46.910;6.354;2023-02-14T06:53:12;12.50;10.75;8.25
76101;PMS7003;64830;46.910;6.354;2023-02-14T06:55:38;10.75;9.50;9.00
76101;PMS7003;64830;46.910;6.354;2023-02-14T06:58:03;14.50;11.75;8.75
76101;PMS7003;64830;46.910;6.354;2023-02-14T07:00:29;15.00;10.75;7.00
76101;PMS7003;64830;46.910;6.354;2023-02-14T07:02:54;9.75;9.75;7.00
76101;PMS7003;64830;46.910;6.354;2023-02-14T07:05:20;12.00;11.25;9.25
76101;PMS7003;64830;46.910;6.354;2023-02-14T07:07:46;15.75;10.25;9.25
76101;PMS7003;64830;46.910;6.354;2023-02-14T07:10:11;12.00;12.00;9.00
76101;PMS7003;64830;46.910;6.354;2023-02-14T07:12:37;12.25;11.50;8.75
76101;PMS7003;64830;46.910;6.354;2023-02-14T07:15:04;12.75;12.00;9.00
76101;PMS7003;64830;46.910;6.354;2023-02-14T07:17:33;15.25;13.00;10.25
76101;PMS7003;64830;46.910;6.354;2023-02-14T07:19:59;11.25;9.75;8.50
76101;PMS7003;64830;46.910;6.354;2023-02-14T07:22:24;12.50;12.00;9.50
76101;PMS7003;64830;46.910;6.354;2023-02-14T07:24:50;13.25;12.50;10.00
76101;PMS7003;64830;46.910;6.354;2023-02-14T07:27:15;16.00;12.75;10.00
76101;PMS7003;64830;46.910;6.354;2023-02-14T07:29:41;14.00;11.75;9.00
76101;PMS7003;64830;46.910;6.354;2023-02-14T07:32:06;13.25;11.25;9.75
76101;PMS7003;64830;46.910;6.354;2023-02-14T07:34:32;14.75;11.00;9.25
76101;PMS7003;64830;46.910;6.354;2023-02-14T07:36:57;12.50;10.25;8.75
76101;PMS7003;64830;46.910;6.354;2023-02-14T07:39:22;6.75;4.25;3.75
76101;PMS7003;64830;46.910;6.354;2023-02-14T07:41:48;16.00;10.25;8.25
76101;PMS7003;64830;46.910;6.354;2023-02-14T07:44:13;12.00;9.00;7.00
76101;PMS7003;64830;46.910;6.354;2023-02-14T07:46:39;11.50;11.50;7.00
76101;PMS7003;64830;46.910;6.354;2023-02-14T07:49:04;14.25;11.50;8.25
76101;PMS7003;64830;46.910;6.354;2023-02-14T07:51:30;13.00;10.75;8.25
76101;PMS7003;64830;46.910;6.354;2023-02-14T07:53:55;14.25;13.25;10.25
76101;PMS7003;64830;46.910;6.354;2023-02-14T07:56:21;13.00;12.50;8.00
76101;PMS7003;64830;46.910;6.354;2023-02-14T07:58:46;15.75;10.00;8.00
76101;PMS7003;64830;46.910;6.354;2023-02-14T08:01:13;14.00;14.00;12.00
76101;PMS7003;64830;46.910;6.354;2023-02-14T08:03:39;16.50;16.50;12.50
76101;PMS7003;64830;46.910;6.354;2023-02-14T08:06:05;15.75;14.50;11.00
76101;PMS7003;64830;46.910;6.354;2023-02-14T08:08:30;16.00;14.50;11.00
76101;PMS7003;64830;46.910;6.354;2023-02-14T08:10:56;10.00;5.00;4.00
76101;PMS7003;64830;46.910;6.354;2023-02-14T08:13:22;13.75;11.00;9.25
76101;PMS7003;64830;46.910;6.354;2023-02-14T08:15:48;13.00;7.75;7.25
76101;PMS7003;64830;46.910;6.354;2023-02-14T08:18:28;19.00;14.75;11.75
76101;PMS7003;64830;46.910;6.354;2023-02-14T08:20:56;14.50;11.50;10.00
76101;PMS7003;64830;46.910;6.354;2023-02-14T08:23:21;12.25;12.25;10.00
76101;PMS7003;64830;46.910;6.354;2023-02-14T08:25:47;10.25;9.25;7.00
76101;PMS7003;64830;46.910;6.354;2023-02-14T08:28:14;12.75;11.75;9.25
76101;PMS7003;64830;46.910;6.354;2023-02-14T08:30:40;12.00;11.00;9.50
76101;PMS7003;64830;46.910;6.354;2023-02-14T08:33:06;15.00;14.25;10.00
76101;PMS7003;64830;46.910;6.354;2023-02-14T08:35:32;15.25;11.00;8.00
76101;PMS7003;64830;46.910;6.354;2023-02-14T08:37:58;16.00;13.25;11.00
76101;PMS7003;64830;46.910;6.354;2023-02-14T08:40:23;14.00;12.00;9.00
76101;PMS7003;64830;46.910;6.354;2023-02-14T08:42:49;13.25;10.25;8.25
76101;PMS7003;64830;46.910;6.354;2023-02-14T08:45:14;14.00;14.00;10.50
76101;PMS7003;64830;46.910;6.354;2023-02-14T08:47:40;11.50;11.50;8.50
76101;PMS7003;64830;46.910;6.354;2023-02-14T08:50:06;19.50;16.00;10.00
76101;PMS7003;64830;46.910;6.354;2023-02-14T08:52:34;17.25;15.50;11.00
76101;PMS7003;64830;46.910;6.354;2023-02-14T08:54:59;17.50;13.25;11.00
76101;PMS7003;64830;46.910;6.354;2023-02-14T08:57:26;16.00;12.00;8.25
76101;PMS7003;64830;46.910;6.354;2023-02-14T08:59:52;13.00;12.50;8.00
76101;PMS7003;64830;46.910;6.354;2023-02-14T09:02:18;11.25;9.75;8.00
76101;PMS7003;64830;46.910;6.354;2023-02-14T09:04:43;13.75;9.00;5.00
76101;PMS7003;64830;46.910;6.354;2023-02-14T09:07:10;12.50;12.00;8.75
76101;PMS7003;64830;46.910;6.354;2023-02-14T09:09:36;13.50;12.50;9.00
76101;PMS7003;64830;46.910;6.354;2023-02-14T09:12:02;13.50;11.00;9.00
76101;PMS7003;64830;46.910;6.354;2023-02-14T09:14:28;17.75;13.50;8.75
76101;PMS7003;64830;46.910;6.354;2023-02-14T09:16:54;12.50;10.00;9.00
76101;PMS7003;64830;46.910;6.354;2023-02-14T09:19:20;17.00;13.75;12.50
76101;PMS7003;64830;46.910;6.354;2023-02-14T09:21:45;13.75;13.25;10.00
76101;PMS7003;64830;46.910;6.354;2023-02-14T09:24:10;18.50;14.25;10.75
76101;PMS7003;64830;46.910;6.354;2023-02-14T09:26:36;13.50;11.50;10.00
76101;PMS7003;64830;46.910;6.354;2023-02-14T09:29:04;10.00;9.00;9.00
76101;PMS7003;64830;46.910;6.354;2023-02-14T09:31:30;13.75;10.75;7.25
76101;PMS7003;64830;46.910;6.354;2023-02-14T09:33:55;10.25;10.25;7.50
76101;PMS7003;64830;46.910;6.354;2023-02-14T09:36:39;15.00;12.75;7.75
76101;PMS7003;64830;46.910;6.354;2023-02-14T09:39:05;14.50;13.25;9.00
76101;PMS7003;64830;46.910;6.354;2023-02-14T09:44:29;11.75;11.00;7.00
76101;PMS7003;64830;46.910;6.354;2023-02-14T09:47:05;9.75;9.75;6.75
76101;PMS7003;64830;46.910;6.354;2023-02-14T09:49:50;14.25;12.00;9.00
76101;PMS7003;64830;46.910;6.354;2023-02-14T09:52:17;11.25;10.25;7.00
76101;PMS7003;64830;46.910;6.354;2023-02-14T09:54:48;11.25;8.75;6.75
76101;PMS7003;64830;46.910;6.354;2023-02-14T10:00:06;10.00;10.00;7.25
76101;PMS7003;64830;46.910;6.354;2023-02-14T10:02:48;13.00;11.50;8.75
76101;PMS7003;64830;46.910;6.354;2023-02-14T10:05:21;14.75;13.50;9.75
76101;PMS7003;64830;46.910;6.354;2023-02-14T10:11:00;13.00;11.50;10.00
76101;PMS7003;64830;46.910;6.354;2023-02-14T10:16:19;13.50;11.75;10.00
76101;PMS7003;64830;46.910;6.354;2023-02-14T10:21:52;16.50;16.00;12.00
76101;PMS7003;64830;46.910;6.354;2023-02-14T10:24:29;18.25;17.50;12.25
76101;PMS7003;64830;46.910;6.354;2023-02-14T10:27:10;22.25;19.50;13.00
76101;PMS7003;64830;46.910;6.354;2023-02-14T10:29:51;21.00;18.50;12.25
76101;PMS7003;64830;46.910;6.354;2023-02-14T10:32:18;19.50;18.50;14.00
76101;PMS7003;64830;46.910;6.354;2023-02-14T10:34:55;23.00;20.50;15.75
76101;PMS7003;64830;46.910;6.354;2023-02-14T10:37:29;19.25;18.75;13.00
76101;PMS7003;64830;46.910;6.354;2023-02-14T10:56:30;17.75;15.00;11.25
76101;PMS7003;64830;46.910;6.354;2023-02-14T10:59:01;16.00;14.50;10.25
76101;PMS7003;64830;46.910;6.354;2023-02-14T11:01:40;12.75;11.75;9.00
76101;PMS7003;64830;46.910;6.354;2023-02-14T11:04:06;8.00;8.00;6.75
76101;PMS7003;64830;46.910;6.354;2023-02-14T11:06:35;7.50;7.50;4.50
76101;PMS7003;64830;46.910;6.354;2023-02-14T11:09:01;9.00;7.00;4.25
76101;PMS7003;64830;46.910;6.354;2023-02-14T11:11:28;6.25;4.00;4.00
76101;PMS7003;64830;46.910;6.354;2023-02-14T11:13:59;7.25;7.00;4.00
76101;PMS7003;64830;46.910;6.354;2023-02-14T11:16:44;8.00;5.00;4.00
76101;PMS7003;64830;46.910;6.354;2023-02-14T11:21:50;4.50;3.75;3.00
76101;PMS7003;64830;46.910;6.354;2023-02-14T11:26:53;8.00;6.25;5.00
76101;PMS7003;64830;46.910;6.354;2023-02-14T11:29:25;7.50;5.00;3.50
76101;PMS7003;64830;46.910;6.354;2023-02-14T11:31:53;8.00;5.25;4.00
76101;PMS7003;64830;46.910;6.354;2023-02-14T11:34:33;8.50;5.00;4.00
76101;PMS7003;64830;46.910;6.354;2023-02-14T11:37:14;10.50;6.50;5.00
76101;PMS7003;64830;46.910;6.354;2023-02-14T11:39:42;8.00;8.00;5.25
76101;PMS7003;64830;46.910;6.354;2023-02-14T11:42:09;6.50;5.50;4.00
76101;PMS7003;64830;46.910;6.354;2023-02-14T11:44:36;18.25;12.25;8.75
76101;PMS7003;64830;46.910;6.354;2023-02-14T11:50:03;8.00;8.00;5.00
76101;PMS7003;64830;46.910;6.354;2023-02-14T11:52:35;4.00;4.00;3.00
76101;PMS7003;64830;46.910;6.354;2023-02-14T11:55:20;4.25;3.25;3.00
76101;PMS7003;64830;46.910;6.354;2023-02-14T11:57:49;4.00;3.25;3.00
76101;PMS7003;64830;46.910;6.354;2023-02-14T12:00:16;3.75;3.50;3.00
76101;PMS7003;64830;46.910;6.354;2023-02-14T12:02:43;3.25;3.25;3.00
76101;PMS7003;64830;46.910;6.354;2023-02-14T12:07:45;5.00;4.00;3.25
76101;PMS7003;64830;46.910;6.354;2023-02-14T12:15:27;4.50;3.00;3.00
76101;PMS7003;64830;46.910;6.354;2023-02-14T12:20:52;5.25;5.00;4.00
76101;PMS7003;64830;46.910;6.354;2023-02-14T12:23:26;4.50;4.00;3.00
76101;PMS7003;64830;46.910;6.354;2023-02-14T12:26:05;5.00;5.00;4.00
76101;PMS7003;64830;46.910;6.354;2023-02-14T12:28:42;5.25;5.00;4.25
76101;PMS7003;64830;46.910;6.354;2023-02-14T12:31:14;5.00;5.00;4.00
76101;PMS7003;64830;46.910;6.354;2023-02-14T12:33:40;6.00;4.00;3.00
76101;PMS7003;64830;46.910;6.354;2023-02-14T12:36:08;4.75;4.25;3.75
76101;PMS7003;64830;46.910;6.354;2023-02-14T12:44:06;4.25;4.25;3.00
76101;PMS7003;64830;46.910;6.354;2023-02-14T12:52:07;3.75;2.00;2.00
76101;PMS7003;64830;46.910;6.354;2023-02-14T12:54:48;3.50;3.50;3.00
76101;PMS7003;64830;46.910;6.354;2023-02-14T12:57:34;3.75;2.75;2.50
76101;PMS7003;64830;46.910;6.354;2023-02-14T13:05:45;2.25;2.00;2.00
76101;PMS7003;64830;46.910;6.354;2023-02-14T13:22:32;3.00;3.00;3.00
76101;PMS7003;64830;46.910;6.354;2023-02-14T13:25:00;3.25;3.00;3.00
76101;PMS7003;64830;46.910;6.354;2023-02-14T13:27:33;5.50;3.00;3.00
76101;PMS7003;64830;46.910;6.354;2023-02-14T13:30:06;3.50;2.00;2.00
76101;PMS7003;64830;46.910;6.354;2023-02-14T13:32:41;2.00;2.00;2.00
76101;PMS7003;64830;46.910;6.354;2023-02-14T13:35:17;2.50;2.50;2.50
76101;PMS7003;64830;46.910;6.354;2023-02-14T13:37:50;4.00;4.00;3.75
76101;PMS7003;64830;46.910;6.354;2023-02-14T13:40:21;3.75;3.75;3.00
76101;PMS7003;64830;46.910;6.354;2023-02-14T13:42:50;4.00;3.00;2.75
76101;PMS7003;64830;46.910;6.354;2023-02-14T13:55:54;3.25;3.25;3.00
76101;PMS7003;64830;46.910;6.354;2023-02-14T13:58:20;5.50;3.75;3.00
76101;PMS7003;64830;46.910;6.354;2023-02-14T14:00:48;4.50;3.50;3.00
76101;PMS7003;64830;46.910;6.354;2023-02-14T14:10:49;3.50;3.50;3.00
76101;PMS7003;64830;46.910;6.354;2023-02-14T14:21:27;4.00;4.00;3.25
76101;PMS7003;64830;46.910;6.354;2023-02-14T14:27:03;4.00;3.25;3.00
76101;PMS7003;64830;46.910;6.354;2023-02-14T14:34:51;7.50;4.75;4.00
76101;PMS7003;64830;46.910;6.354;2023-02-14T14:37:20;3.00;3.00;2.00
76101;PMS7003;64830;46.910;6.354;2023-02-14T14:39:53;4.00;4.00;4.00
76101;PMS7003;64830;46.910;6.354;2023-02-14T14:42:20;5.25;5.25;4.00
76101;PMS7003;64830;46.910;6.354;2023-02-14T14:44:50;6.25;6.00;5.00
76101;PMS7003;64830;46.910;6.354;2023-02-14T14:47:24;7.50;7.00;6.00
76101;PMS7003;64830;46.910;6.354;2023-02-14T14:50:03;5.75;5.00;4.75
76101;PMS7003;64830;46.910;6.354;2023-02-14T14:55:04;5.25;5.25;4.25
76101;PMS7003;64830;46.910;6.354;2023-02-14T14:57:31;8.50;6.00;5.00
76101;PMS7003;64830;46.910;6.354;2023-02-14T15:00:04;6.00;6.00;5.00
76101;PMS7003;64830;46.910;6.354;2023-02-14T15:02:53;4.25;4.00;3.00
76101;PMS7003;64830;46.910;6.354;2023-02-14T15:05:27;13.50;10.00;8.25
76101;PMS7003;64830;46.910;6.354;2023-02-14T15:08:20;14.50;13.75;9.25
76101;PMS7003;64830;46.910;6.354;2023-02-14T15:11:01;10.75;9.25;8.00
76101;PMS7003;64830;46.910;6.354;2023-02-14T15:13:41;13.25;12.00;8.25
76101;PMS7003;64830;46.910;6.354;2023-02-14T15:18:49;17.00;17.00;12.00
76101;PMS7003;64830;46.910;6.354;2023-02-14T15:21:17;18.75;17.75;13.75
76101;PMS7003;64830;46.910;6.354;2023-02-14T15:23:43;19.50;18.25;14.00
76101;PMS7003;64830;46.910;6.354;2023-02-14T15:26:14;18.00;14.75;11.00
76101;PMS7003;64830;46.910;6.354;2023-02-14T15:28:42;19.25;17.50;13.50
76101;PMS7003;64830;46.910;6.354;2023-02-14T15:31:08;16.00;16.00;11.25
76101;PMS7003;64830;46.910;6.354;2023-02-14T15:33:33;22.00;17.50;13.00
76101;PMS7003;64830;46.910;6.354;2023-02-14T15:36:01;18.25;16.75;11.00
76101;PMS7003;64830;46.910;6.354;2023-02-14T15:38:29;20.25;20.25;14.00
76101;PMS7003;64830;46.910;6.354;2023-02-14T15:40:55;21.25;19.50;14.50
76101;PMS7003;64830;46.910;6.354;2023-02-14T15:43:28;21.50;18.75;14.50
76101;PMS7003;64830;46.910;6.354;2023-02-14T15:45:57;23.75;20.00;16.00
76101;PMS7003;64830;46.910;6.354;2023-02-14T15:48:27;18.25;16.00;13.50
76101;PMS7003;64830;46.910;6.354;2023-02-14T15:50:57;16.25;16.00;13.50
76101;PMS7003;64830;46.910;6.354;2023-02-14T15:53:40;19.25;16.25;13.50
76101;PMS7003;64830;46.910;6.354;2023-02-14T15:58:45;17.00;16.00;11.50
76101;PMS7003;64830;46.910;6.354;2023-02-14T16:01:11;20.25;18.00;12.75
76101;PMS7003;64830;46.910;6.354;2023-02-14T16:03:38;16.75;15.75;13.00
76101;PMS7003;64830;46.910;6.354;2023-02-14T16:06:14;20.75;20.00;14.50
76101;PMS7003;64830;46.910;6.354;2023-02-14T16:08:55;18.75;18.75;14.50
76101;PMS7003;64830;46.910;6.354;2023-02-14T16:11:30;17.00;16.00;14.00
76101;PMS7003;64830;46.910;6.354;2023-02-14T16:14:18;20.75;19.00;16.00
76101;PMS7003;64830;46.910;6.354;2023-02-14T16:16:57;18.75;16.75;14.25
76101;PMS7003;64830;46.910;6.354;2023-02-14T16:19:38;17.50;16.00;12.50
76101;PMS7003;64830;46.910;6.354;2023-02-14T16:22:22;19.50;18.50;14.25
76101;PMS7003;64830;46.910;6.354;2023-02-14T16:24:50;17.25;17.00;14.00
76101;PMS7003;64830;46.910;6.354;2023-02-14T16:27:15;15.00;15.00;12.75
76101;PMS7003;64830;46.910;6.354;2023-02-14T16:29:40;15.50;14.75;10.00
76101;PMS7003;64830;46.910;6.354;2023-02-14T16:32:10;17.50;16.25;12.25
76101;PMS7003;64830;46.910;6.354;2023-02-14T16:34:38;20.25;19.50;13.75
76101;PMS7003;64830;46.910;6.354;2023-02-14T16:37:05;19.75;19.75;15.00
76101;PMS7003;64830;46.910;6.354;2023-02-14T16:39:33;23.50;21.75;14.75
76101;PMS7003;64830;46.910;6.354;2023-02-14T16:41:59;24.75;23.00;15.00
76101;PMS7003;64830;46.910;6.354;2023-02-14T16:44:27;20.50;19.75;14.50
76101;PMS7003;64830;46.910;6.354;2023-02-14T16:46:52;20.25;18.50;13.00
76101;PMS7003;64830;46.910;6.354;2023-02-14T16:49:17;15.00;14.00;11.00
76101;PMS7003;64830;46.910;6.354;2023-02-14T16:51:43;17.50;15.00;11.25
76101;PMS7003;64830;46.910;6.354;2023-02-14T16:54:14;20.00;18.25;13.00
76101;PMS7003;64830;46.910;6.354;2023-02-14T16:56:43;21.75;19.75;15.50
76101;PMS7003;64830;46.910;6.354;2023-02-14T16:59:29;22.50;19.00;14.50
76101;PMS7003;64830;46.910;6.354;2023-02-14T17:01:58;19.50;17.75;14.50
76101;PMS7003;64830;46.910;6.354;2023-02-14T17:04:23;29.00;23.00;17.50
76101;PMS7003;64830;46.910;6.354;2023-02-14T17:06:53;31.50;28.25;21.00
76101;PMS7003;64830;46.910;6.354;2023-02-14T17:09:22;23.00;22.25;15.25
76101;PMS7003;64830;46.910;6.354;2023-02-14T17:11:51;24.50;19.75;14.75